createdAt,value
2023-02-14T00:01:53.576Z,13.30
2023-02-14T00:04:21.929Z,12.30
2023-02-14T00:06:53.008Z,13.80
2023-02-14T00:09:22.092Z,16.20
2023-02-14T00:11:53.237Z,18.10
2023-02-14T00:14:40.888Z,15.70
2023-02-14T00:17:09.345Z,13.30
2023-02-14T00:19:38.232Z,12.80
2023-02-14T00:22:06.918Z,13.80
2023-02-14T00:24:35.224Z,14.00
2023-02-14T00:27:04.092Z,13.00
2023-02-14T00:29:32.876Z,14.00
2023-02-14T00:32:03.299Z,14.60
2023-02-14T00:34:33.721Z,16.90
2023-02-14T00:37:03.274Z,13.80
2023-02-14T00:39:32.428Z,16.40
2023-02-14T00:42:01.621Z,12.10
2023-02-14T00:44:30.306Z,13.70
2023-02-14T00:46:59.518Z,15.40
2023-02-14T00:49:28.130Z,14.40
2023-02-14T00:51:56.874Z,14.00
2023-02-14T00:54:25.764Z,12.50
2023-02-14T00:56:54.354Z,14.50
2023-02-14T00:59:22.753Z,13.50
2023-02-14T01:01:51.214Z,13.30
2023-02-14T01:04:19.892Z,13.60
2023-02-14T01:06:48.787Z,15.40
2023-02-14T01:09:17.164Z,11.90
2023-02-14T01:11:46.769Z,13.50
2023-02-14T01:14:16.477Z,12.40
2023-02-14T01:16:45.446Z,12.10
2023-02-14T01:19:14.460Z,13.40
2023-02-14T01:21:45.396Z,12.40
2023-02-14T01:24:14.286Z,13.70
2023-02-14T01:26:44.922Z,14.20
2023-02-14T01:29:13.410Z,12.00
2023-02-14T01:31:42.690Z,12.90
2023-02-14T01:34:11.077Z,13.00
2023-02-14T01:36:41.201Z,14.30
2023-02-14T01:39:16.434Z,16.40
2023-02-14T01:41:50.343Z,13.80
2023-02-14T01:44:18.722Z,14.70
2023-02-14T01:46:47.321Z,13.80
2023-02-14T01:49:18.956Z,14.30
2023-02-14T01:51:59.325Z,16.90
2023-02-14T01:54:27.697Z,14.40
2023-02-14T01:56:58.858Z,14.60
2023-02-14T01:59:29.168Z,13.50
2023-02-14T02:01:57.587Z,15.00
2023-02-14T02:04:28.396Z,15.50
2023-02-14T02:07:03.524Z,15.90
2023-02-14T02:09:44.191Z,14.80
2023-02-14T02:12:12.673Z,14.80
2023-02-14T02:14:46.467Z,14.20
2023-02-14T02:17:50.480Z,15.00
2023-02-14T02:20:45.381Z,13.50
2023-02-14T02:23:33.631Z,14.40
2023-02-14T02:26:31.713Z,14.60
2023-02-14T02:29:11.652Z,16.30
2023-02-14T02:31:52.935Z,15.20
2023-02-14T02:34:27.140Z,14.20
2023-02-14T02:37:07.835Z,12.90
2023-02-14T02:39:36.229Z,14.40
2023-02-14T02:42:42.148Z,15.60
2023-02-14T02:45:16.489Z,13.60
2023-02-14T02:48:08.925Z,14.10
2023-02-14T02:51:04.148Z,17.00
2023-02-14T02:53:43.039Z,14.20
2023-02-14T02:56:36.609Z,13.60
2023-02-14T02:59:21.000Z,16.30
2023-02-14T03:02:26.918Z,15.80
2023-02-14T03:04:56.457Z,20.10
2023-02-14T03:07:39.609Z,15.40
2023-02-14T03:10:14.067Z,16.70
2023-02-14T03:13:02.005Z,16.60
2023-02-14T03:15:50.624Z,17.90
2023-02-14T03:18:50.897Z,16.80
2023-02-14T03:21:20.214Z,20.20
2023-02-14T03:23:53.481Z,17.70
2023-02-14T03:26:30.964Z,16.60
2023-02-14T03:29:13.326Z,19.20
2023-02-14T03:32:34.387Z,19.70
2023-02-14T03:35:15.384Z,20.20
2023-02-14T03:38:12.319Z,19.30
2023-02-14T03:44:05.393Z,21.90
2023-02-14T03:46:45.380Z,19.60
2023-02-14T03:49:16.381Z,22.30
2023-02-14T03:51:45.470Z,20.30
2023-02-14T03:54:13.765Z,17.90
2023-02-14T03:56:46.529Z,21.30
2023-02-14T03:59:17.336Z,20.90
2023-02-14T04:02:07.553Z,21.80
2023-02-14T04:04:38.276Z,20.60
2023-02-14T04:07:11.477Z,17.80
2023-02-14T04:09:40.187Z,20.50
2023-02-14T04:12:10.990Z,19.20
2023-02-14T04:14:39.678Z,18.60
2023-02-14T04:17:27.315Z,19.50
2023-02-14T04:19:56.098Z,18.40
2023-02-14T04:22:24.299Z,20.80
2023-02-14T04:24:52.846Z,19.30
2023-02-14T04:27:21.333Z,17.70
2023-02-14T04:29:51.147Z,21.20
2023-02-14T04:32:21.827Z,18.90
2023-02-14T04:34:51.171Z,17.80
2023-02-14T04:37:19.796Z,18.00
2023-02-14T04:39:48.539Z,19.80
2023-02-14T04:42:17.027Z,19.30
2023-02-14T04:44:45.711Z,16.70
2023-02-14T04:47:14.189Z,20.60
2023-02-14T04:49:43.181Z,19.00
2023-02-14T04:52:13.502Z,18.50
2023-02-14T04:54:44.033Z,18.60
2023-02-14T04:57:12.728Z,17.90
2023-02-14T04:59:41.934Z,16.90
2023-02-14T05:02:10.979Z,16.70
2023-02-14T05:04:39.696Z,17.00
2023-02-14T05:07:08.279Z,14.60
2023-02-14T05:09:42.098Z,15.70
2023-02-14T05:12:10.378Z,14.60
2023-02-14T05:14:38.833Z,17.10
2023-02-14T05:17:07.623Z,13.90
2023-02-14T05:19:36.414Z,14.30
2023-02-14T05:22:05.107Z,13.00
2023-02-14T05:24:33.500Z,13.30
2023-02-14T05:27:02.060Z,14.00
2023-02-14T05:29:30.739Z,14.50
2023-02-14T05:31:59.221Z,12.90
2023-02-14T05:34:28.211Z,13.90
2023-02-14T05:36:57.849Z,14.00
2023-02-14T05:39:26.412Z,13.30
2023-02-14T05:41:58.491Z,14.20
2023-02-14T05:44:28.277Z,12.20
2023-02-14T05:46:57.683Z,13.90
2023-02-14T05:49:26.061Z,13.50
2023-02-14T05:51:55.769Z,14.30
2023-02-14T05:54:24.670Z,13.40
2023-02-14T05:56:53.145Z,17.60
2023-02-14T05:59:21.827Z,14.90
2023-02-14T06:01:50.427Z,12.30
2023-02-14T06:04:19.152Z,13.30
2023-02-14T06:06:47.475Z,13.30
2023-02-14T06:09:16.060Z,13.30
2023-02-14T06:11:44.447Z,13.90
2023-02-14T06:14:13.639Z,12.40
2023-02-14T06:16:42.084Z,14.20
2023-02-14T06:19:13.492Z,14.00
2023-02-14T06:21:41.844Z,13.00
2023-02-14T06:24:10.219Z,13.40
2023-02-14T06:26:40.472Z,11.60
2023-02-14T06:29:09.025Z,10.50
2023-02-14T06:31:37.708Z,11.40
2023-02-14T06:34:06.086Z,12.20
2023-02-14T06:36:35.793Z,10.60
2023-02-14T06:39:04.683Z,11.50
2023-02-14T06:41:33.398Z,10.50
2023-02-14T06:44:01.750Z,11.00
2023-02-14T06:46:30.449Z,10.90
2023-02-14T06:48:59.020Z,9.80
2023-02-14T06:51:27.823Z,11.00
2023-02-14T06:53:56.181Z,9.60
2023-02-14T06:56:24.560Z,10.90
2023-02-14T06:58:53.081Z,13.80
2023-02-14T07:01:21.757Z,10.60
2023-02-14T07:03:50.308Z,9.70
2023-02-14T07:06:18.994Z,10.00
2023-02-14T07:08:47.780Z,9.30
2023-02-14T07:11:16.572Z,9.00
2023-02-14T07:13:47.134Z,10.40
2023-02-14T07:16:17.590Z,8.70
2023-02-14T07:18:45.902Z,8.50
2023-02-14T07:21:16.025Z,9.70
2023-02-14T07:23:47.982Z,9.70
2023-02-14T07:26:18.511Z,8.70
2023-02-14T07:28:49.355Z,8.60
2023-02-14T07:31:18.760Z,8.80
2023-02-14T07:33:48.044Z,9.90
2023-02-14T07:36:16.629Z,7.80
2023-02-14T07:38:45.516Z,8.10
2023-02-14T07:41:14.101Z,8.90
2023-02-14T07:43:42.383Z,8.00
2023-02-14T07:46:10.677Z,7.60
2023-02-14T07:48:40.582Z,7.80
2023-02-14T07:55:16.559Z,7.70
2023-02-14T07:57:43.499Z,8.60
2023-02-14T08:00:11.054Z,9.10
2023-02-14T08:02:41.377Z,7.80
2023-02-14T08:05:08.545Z,9.30
2023-02-14T08:07:36.389Z,7.80
2023-02-14T08:10:03.640Z,8.10
2023-02-14T08:12:54.647Z,8.60
2023-02-14T08:15:41.222Z,7.90
2023-02-14T08:18:12.601Z,8.30
2023-02-14T08:20:40.258Z,8.10
2023-02-14T08:23:11.610Z,7.60
2023-02-14T08:25:39.297Z,7.00
2023-02-14T08:28:07.476Z,8.20
2023-02-14T08:30:37.781Z,9.50
2023-02-14T08:33:05.437Z,8.20
2023-02-14T08:35:33.601Z,10.50
2023-02-14T08:38:00.542Z,10.80
2023-02-14T08:40:27.996Z,10.10
2023-02-14T08:42:55.555Z,7.20
2023-02-14T08:45:23.346Z,9.40
2023-02-14T08:47:50.470Z,8.00
2023-02-14T08:50:17.826Z,8.40
2023-02-14T08:52:44.873Z,10.60
2023-02-14T08:55:13.464Z,8.10
2023-02-14T08:57:42.549Z,8.00
2023-02-14T09:00:10.215Z,8.80
2023-02-14T09:02:39.339Z,8.00
2023-02-14T09:05:08.847Z,7.90
2023-02-14T09:07:36.401Z,8.40
2023-02-14T09:10:09.988Z,8.70
2023-02-14T09:12:41.158Z,7.10
2023-02-14T09:15:09.082Z,9.90
2023-02-14T09:17:36.950Z,9.60
2023-02-14T09:20:06.376Z,8.20
2023-02-14T09:22:36.361Z,8.90
2023-02-14T09:25:04.842Z,7.80
2023-02-14T09:27:32.516Z,8.60
2023-02-14T09:30:00.094Z,9.90
2023-02-14T09:32:28.806Z,10.90
2023-02-14T09:35:14.550Z,7.10
2023-02-14T09:38:00.014Z,7.90
2023-02-14T09:40:27.058Z,8.10
2023-02-14T09:43:29.844Z,7.10
2023-02-14T09:45:57.528Z,8.10
2023-02-14T09:48:32.914Z,8.50
2023-02-14T09:51:08.194Z,7.00
2023-02-14T09:53:40.496Z,8.80
2023-02-14T09:56:50.548Z,7.50
2023-02-14T09:59:46.441Z,8.10
2023-02-14T10:02:40.458Z,9.60
2023-02-14T10:05:28.673Z,7.50
2023-02-14T10:07:55.918Z,7.30
2023-02-14T10:10:41.195Z,7.80
2023-02-14T10:13:31.478Z,8.10
2023-02-14T10:16:18.002Z,6.90
2023-02-14T10:19:03.675Z,6.90
2023-02-14T10:21:56.311Z,7.60
2023-02-14T10:24:38.412Z,7.30
2023-02-14T10:27:29.006Z,7.10
2023-02-14T10:29:56.194Z,8.90
2023-02-14T10:32:37.753Z,9.50
2023-02-14T10:35:11.242Z,7.90
2023-02-14T10:38:03.484Z,7.90
2023-02-14T10:41:01.992Z,8.10
2023-02-14T10:43:38.544Z,7.70
2023-02-14T10:46:45.311Z,7.30
2023-02-14T10:49:35.369Z,8.30
2023-02-14T10:52:43.123Z,9.10
2023-02-14T10:55:42.617Z,10.10
2023-02-14T10:58:13.342Z,8.40
2023-02-14T11:00:51.588Z,9.00
2023-02-14T11:03:18.920Z,7.20
2023-02-14T11:05:49.450Z,6.30
2023-02-14T11:08:22.624Z,6.70
2023-02-14T11:10:51.103Z,7.00
2023-02-14T11:13:48.056Z,9.10
2023-02-14T11:16:29.564Z,7.30
2023-02-14T11:19:34.963Z,7.30
2023-02-14T11:22:04.289Z,13.00
2023-02-14T11:24:32.539Z,9.60
2023-02-14T11:27:04.425Z,6.50
2023-02-14T11:29:38.953Z,6.80
2023-02-14T11:32:10.507Z,6.00
2023-02-14T11:34:59.452Z,8.50
2023-02-14T11:38:42.376Z,6.40
2023-02-14T11:41:11.292Z,7.40
2023-02-14T11:46:23.671Z,5.70
2023-02-14T11:48:58.419Z,5.40
2023-02-14T11:51:27.850Z,6.60
2023-02-14T11:53:56.617Z,6.30
2023-02-14T11:56:23.776Z,5.60
2023-02-14T11:58:55.420Z,6.00
2023-02-14T12:04:55.156Z,5.90
2023-02-14T12:07:26.864Z,6.50
2023-02-14T12:10:11.765Z,7.40
2023-02-14T12:12:56.549Z,7.90
2023-02-14T12:15:30.805Z,7.20
2023-02-14T12:18:21.036Z,5.90
2023-02-14T12:20:59.195Z,4.70
2023-02-14T12:23:35.608Z,6.50
2023-02-14T12:26:10.029Z,9.20
2023-02-14T12:28:48.032Z,6.00
2023-02-14T12:31:16.555Z,9.40
2023-02-14T12:33:47.126Z,10.50
2023-02-14T12:39:01.558Z,5.30
2023-02-14T12:45:23.445Z,5.80
2023-02-14T12:48:06.904Z,5.30
2023-02-14T12:51:03.364Z,7.00
2023-02-14T12:53:48.798Z,5.80
2023-02-14T12:56:47.092Z,6.20
2023-02-14T12:59:34.306Z,6.00
2023-02-14T13:02:11.339Z,8.50
2023-02-14T13:04:58.209Z,7.40
2023-02-14T13:07:41.956Z,5.70
2023-02-14T13:10:16.769Z,6.70
2023-02-14T13:13:17.914Z,6.60
2023-02-14T13:15:55.355Z,6.30
2023-02-14T13:18:34.330Z,7.40
2023-02-14T13:21:04.470Z,6.90
2023-02-14T13:23:41.164Z,7.80
2023-02-14T13:26:18.098Z,7.30
2023-02-14T13:28:52.271Z,7.00
2023-02-14T13:31:21.021Z,6.90
2023-02-14T13:33:52.691Z,5.70
2023-02-14T13:36:21.349Z,6.40
2023-02-14T13:38:51.902Z,9.00
2023-02-14T13:41:20.472Z,6.60
2023-02-14T13:44:01.701Z,5.30
2023-02-14T13:46:30.464Z,6.70
2023-02-14T13:49:03.708Z,10.00
2023-02-14T13:52:04.005Z,12.40
2023-02-14T13:54:45.124Z,15.10
2023-02-14T13:57:31.703Z,16.40
2023-02-14T14:00:21.523Z,13.20
2023-02-14T14:02:59.392Z,9.00
2023-02-14T14:05:32.797Z,9.30
2023-02-14T14:08:23.697Z,10.50
2023-02-14T14:11:03.781Z,9.10
2023-02-14T14:13:41.355Z,9.20
2023-02-14T14:16:28.796Z,11.00
2023-02-14T14:18:57.467Z,15.60
2023-02-14T14:21:28.595Z,15.20
2023-02-14T14:24:24.636Z,14.10
2023-02-14T14:27:12.362Z,16.40
2023-02-14T14:29:44.528Z,11.80
2023-02-14T14:32:27.441Z,12.80
2023-02-14T14:35:20.503Z,10.10
2023-02-14T14:37:57.071Z,15.40
2023-02-14T14:40:27.312Z,16.00
2023-02-14T14:42:57.960Z,16.50
2023-02-14T14:45:28.835Z,15.30
2023-02-14T14:47:59.081Z,12.00
2023-02-14T14:50:32.586Z,11.30
2023-02-14T14:53:06.124Z,11.00
2023-02-14T14:55:37.047Z,10.30
2023-02-14T14:58:09.195Z,9.70
2023-02-14T15:00:38.424Z,7.70
2023-02-14T15:03:10.341Z,7.80
2023-02-14T15:08:23.277Z,10.50
2023-02-14T15:11:10.606Z,11.20
2023-02-14T15:13:49.632Z,12.40
2023-02-14T15:16:23.663Z,10.70
2023-02-14T15:18:55.302Z,9.90
2023-02-14T15:21:23.570Z,11.10
2023-02-14T15:23:53.074Z,12.90
2023-02-14T15:26:28.721Z,11.10
2023-02-14T15:29:06.203Z,12.10
2023-02-14T15:31:37.560Z,11.50
2023-02-14T15:34:06.255Z,9.50
2023-02-14T15:36:36.575Z,10.50
2023-02-14T15:39:06.914Z,11.80
2023-02-14T15:41:36.305Z,10.50
2023-02-14T15:44:05.123Z,9.30
2023-02-14T15:46:38.167Z,12.20
2023-02-14T15:49:09.566Z,15.30
2023-02-14T15:51:38.185Z,8.90
2023-02-14T15:54:23.381Z,7.40
2023-02-14T15:56:53.087Z,6.90
2023-02-14T15:59:24.234Z,6.20
2023-02-14T16:01:55.301Z,6.40
2023-02-14T16:04:25.493Z,4.50
2023-02-14T16:07:26.339Z,3.90
2023-02-14T16:10:14.776Z,5.60
2023-02-14T16:12:43.560Z,4.50
2023-02-14T16:15:18.798Z,5.30
2023-02-14T16:17:47.682Z,5.40
2023-02-14T16:20:36.041Z,5.90
2023-02-14T16:23:28.511Z,6.30
2023-02-14T16:25:57.873Z,7.00
2023-02-14T16:28:30.652Z,6.90
2023-02-14T16:31:00.679Z,8.20
2023-02-14T16:33:31.405Z,6.50
2023-02-14T16:36:14.937Z,5.90
2023-02-14T16:38:44.634Z,6.20
2023-02-14T16:41:24.621Z,5.20
2023-02-14T16:43:54.327Z,6.20
2023-02-14T16:46:29.283Z,5.50
2023-02-14T16:49:00.400Z,9.90
2023-02-14T16:51:31.584Z,7.00
2023-02-14T16:54:03.748Z,5.10
2023-02-14T16:59:07.204Z,5.40
2023-02-14T17:01:35.649Z,7.90
2023-02-14T17:04:05.092Z,5.10
2023-02-14T17:06:34.199Z,3.40
2023-02-14T17:09:07.682Z,4.10
2023-02-14T17:14:07.410Z,4.80
2023-02-14T17:16:36.092Z,6.00
2023-02-14T17:19:04.471Z,8.00
2023-02-14T17:21:35.823Z,10.80
2023-02-14T17:24:04.441Z,7.50
2023-02-14T17:26:34.225Z,4.00
2023-02-14T17:29:02.795Z,2.80
2023-02-14T17:31:32.601Z,3.60
2023-02-14T17:34:01.188Z,5.30
2023-02-14T17:36:32.741Z,2.10
2023-02-14T17:39:03.702Z,3.30
2023-02-14T17:41:32.266Z,4.70
2023-02-14T17:44:00.739Z,3.80
2023-02-14T17:46:30.393Z,2.80
2023-02-14T17:48:59.038Z,2.30
2023-02-14T17:51:27.514Z,3.30
2023-02-14T17:53:58.566Z,2.80
2023-02-14T17:56:27.453Z,1.60
2023-02-14T17:58:56.438Z,2.20
2023-02-14T18:01:31.700Z,3.20
2023-02-14T18:04:00.466Z,2.30
2023-02-14T18:06:29.772Z,1.80
2023-02-14T18:08:58.253Z,2.10
2023-02-14T18:11:27.755Z,2.50
2023-02-14T18:13:56.616Z,2.50
2023-02-14T18:16:25.583Z,6.90
2023-02-14T18:18:55.164Z,3.40
2023-02-14T18:21:24.848Z,3.20
2023-02-14T18:23:54.147Z,3.20
2023-02-14T18:26:42.938Z,2.40
2023-02-14T18:29:13.019Z,4.30
2023-02-14T18:31:42.689Z,6.00
2023-02-14T18:34:11.309Z,4.00
2023-02-14T18:36:42.144Z,4.00
2023-02-14T18:39:10.837Z,3.40
2023-02-14T18:41:39.207Z,4.60
2023-02-14T18:44:07.812Z,3.60
2023-02-14T18:46:38.832Z,4.70
2023-02-14T18:49:08.643Z,5.60
2023-02-14T18:51:39.587Z,6.70
2023-02-14T18:54:08.057Z,5.30
2023-02-14T18:56:37.524Z,7.10
2023-02-14T18:59:07.843Z,4.70
2023-02-14T19:01:38.413Z,5.30
2023-02-14T19:04:09.074Z,4.20
2023-02-14T19:06:40.919Z,6.10
2023-02-14T19:09:14.222Z,5.30
2023-02-14T19:11:42.786Z,3.70
2023-02-14T19:14:12.958Z,4.70
2023-02-14T19:16:44.115Z,5.70
2023-02-14T19:19:13.042Z,4.40
2023-02-14T19:21:41.525Z,3.20
2023-02-14T19:24:17.928Z,4.30
2023-02-14T19:26:48.247Z,4.60
2023-02-14T19:29:18.137Z,5.60
2023-02-14T19:31:54.917Z,4.30
2023-02-14T19:34:27.857Z,3.90
2023-02-14T19:36:59.848Z,5.00
2023-02-14T19:39:32.327Z,6.60
2023-02-14T19:42:05.516Z,6.00
2023-02-14T19:44:33.804Z,5.30
2023-02-14T19:47:09.793Z,3.70
2023-02-14T19:49:44.266Z,5.90
2023-02-14T19:52:25.783Z,5.30
2023-02-14T19:54:56.179Z,5.60
2023-02-14T19:57:25.183Z,8.20
2023-02-14T19:59:58.163Z,7.10
2023-02-14T20:02:26.615Z,6.10
2023-02-14T20:04:59.240Z,7.40
2023-02-14T20:09:55.880Z,7.80
2023-02-14T20:12:24.247Z,7.60
2023-02-14T20:14:54.468Z,8.20
2023-02-14T20:17:22.843Z,8.70
2023-02-14T20:19:53.066Z,5.90
2023-02-14T20:22:25.861Z,7.10
2023-02-14T20:24:54.325Z,7.00
2023-02-14T20:27:25.769Z,5.60
2023-02-14T20:29:55.643Z,5.90
2023-02-14T20:32:24.065Z,6.20
2023-02-14T20:34:53.046Z,5.30
2023-02-14T20:37:21.336Z,7.10
2023-02-14T20:39:50.028Z,7.00
2023-02-14T20:42:18.503Z,6.40
2023-02-14T20:44:47.085Z,5.00
2023-02-14T20:47:15.664Z,5.00
2023-02-14T20:49:45.179Z,4.60
2023-02-14T20:52:13.577Z,5.60
2023-02-14T20:54:42.050Z,6.30
2023-02-14T20:57:10.403Z,5.10
2023-02-14T20:59:39.604Z,4.60
2023-02-14T21:02:09.554Z,5.10
2023-02-14T21:04:38.201Z,5.70
2023-02-14T21:07:09.343Z,4.20
2023-02-14T21:09:39.768Z,5.30
2023-02-14T21:12:09.173Z,4.20
2023-02-14T21:14:37.651Z,5.00
2023-02-14T21:17:06.541Z,5.50
2023-02-14T21:19:35.433Z,4.50
2023-02-14T21:22:06.473Z,5.50
2023-02-14T21:24:34.955Z,6.00
2023-02-14T21:27:03.435Z,5.00
2023-02-14T21:29:33.762Z,3.40
2023-02-14T21:32:03.767Z,5.80
2023-02-14T21:34:33.815Z,5.30
2023-02-14T21:37:02.280Z,3.80
2023-02-14T21:39:31.406Z,3.30
2023-02-14T21:42:01.292Z,3.50
2023-02-14T21:44:48.608Z,5.70
2023-02-14T21:47:17.088Z,3.90
2023-02-14T21:50:04.408Z,3.70
2023-02-14T21:52:34.425Z,5.20
2023-02-14T21:55:03.107Z,3.80
2023-02-14T21:57:31.801Z,3.50
2023-02-14T22:00:00.583Z,2.20
2023-02-14T22:02:29.500Z,1.70
2023-02-14T22:04:58.156Z,2.70
2023-02-14T22:07:30.024Z,1.50
2023-02-14T22:09:58.803Z,0.90
2023-02-14T22:12:28.820Z,0.90
2023-02-14T22:15:00.582Z,0.70
2023-02-14T22:17:29.522Z,0.80
2023-02-14T22:19:58.051Z,1.60
2023-02-14T22:22:27.143Z,1.90
2023-02-14T22:24:55.522Z,1.10
2023-02-14T22:27:24.004Z,3.20
2023-02-14T22:29:52.502Z,2.60
2023-02-14T22:32:21.062Z,2.80
2023-02-14T22:34:49.646Z,3.10
2023-02-14T22:37:18.129Z,3.60
2023-02-14T22:39:46.612Z,4.50
2023-02-14T22:42:14.983Z,5.30
2023-02-14T22:44:43.365Z,3.60
2023-02-14T22:47:11.843Z,3.10
2023-02-14T22:49:40.751Z,4.60
2023-02-14T22:52:09.211Z,3.30
2023-02-14T22:54:38.108Z,4.20
2023-02-14T22:57:07.112Z,3.40
2023-02-14T22:59:35.587Z,3.60
2023-02-14T23:02:04.027Z,4.10
2023-02-14T23:04:33.151Z,3.30
2023-02-14T23:07:02.075Z,10.60
2023-02-14T23:09:30.731Z,2.10
2023-02-14T23:11:59.103Z,2.50
2023-02-14T23:14:46.327Z,3.80
2023-02-14T23:17:18.920Z,2.40
2023-02-14T23:20:06.477Z,3.00
2023-02-14T23:22:39.311Z,2.80
2023-02-14T23:25:09.636Z,2.70
2023-02-14T23:27:44.289Z,1.90
2023-02-14T23:30:16.400Z,2.80
2023-02-14T23:32:44.801Z,2.60
2023-02-14T23:35:13.204Z,1.10
2023-02-14T23:37:42.315Z,1.50
2023-02-14T23:40:12.496Z,4.80
2023-02-14T23:42:41.387Z,1.90
2023-02-14T23:45:29.297Z,1.70
2023-02-14T23:48:05.408Z,4.40
2023-02-14T23:50:34.974Z,1.60
2023-02-14T23:53:03.369Z,1.40
2023-02-14T23:55:32.461Z,2.40
2023-02-14T23:58:01.861Z,1.50
